createdAt,value
2022-12-15T00:05:02.428Z,50.88
2022-12-15T00:07:47.806Z,51.20
2022-12-15T00:10:33.133Z,52.47
2022-12-15T00:13:18.726Z,57.72
2022-12-15T00:16:07.314Z,57.33
2022-12-15T00:18:52.501Z,57.58
2022-12-15T00:21:37.889Z,62.40
2022-12-15T00:24:23.347Z,54.63
2022-12-15T00:27:08.768Z,56.45
2022-12-15T00:29:54.222Z,54.30
2022-12-15T00:32:40.094Z,58.08
2022-12-15T00:35:25.669Z,54.83
2022-12-15T00:38:11.099Z,49.55
2022-12-15T00:40:37.712Z,54.75
2022-12-15T00:43:05.572Z,56.15
2022-12-15T00:45:52.030Z,55.75
2022-12-15T00:48:20.033Z,57.25
2022-12-15T00:50:53.242Z,52.00
2022-12-15T00:53:40.713Z,55.63
2022-12-15T00:56:26.588Z,50.83
2022-12-15T00:59:12.731Z,52.45
2022-12-15T01:01:59.261Z,52.20
2022-12-15T01:04:46.011Z,53.58
2022-12-15T01:07:32.444Z,53.28
2022-12-15T01:10:18.232Z,56.22
2022-12-15T01:13:04.793Z,55.20
2022-12-15T01:15:50.890Z,51.58
2022-12-15T01:18:36.284Z,53.88
2022-12-15T01:21:08.366Z,50.85
2022-12-15T01:23:36.454Z,53.22
2022-12-15T01:26:04.617Z,55.53
2022-12-15T01:28:32.050Z,56.35
2022-12-15T01:30:59.085Z,56.67
2022-12-15T01:33:26.243Z,56.20
2022-12-15T01:36:02.351Z,53.45
2022-12-15T01:38:30.336Z,56.25
2022-12-15T01:41:04.410Z,56.67
2022-12-15T01:43:35.225Z,55.20
2022-12-15T01:46:17.940Z,58.00
2022-12-15T01:49:11.819Z,51.03
2022-12-15T01:51:42.483Z,55.20
2022-12-15T01:54:48.550Z,52.47
2022-12-15T01:57:21.602Z,55.20
2022-12-15T01:59:54.371Z,50.72
2022-12-15T02:02:26.679Z,50.90
2022-12-15T02:04:57.807Z,52.10
2022-12-15T02:07:25.235Z,51.83
2022-12-15T02:09:55.158Z,50.67
2022-12-15T02:12:30.582Z,51.97
2022-12-15T02:15:12.705Z,48.17
2022-12-15T02:18:34.090Z,48.92
2022-12-15T02:21:06.444Z,48.95
2022-12-15T02:24:00.478Z,48.42
2022-12-15T02:26:54.146Z,49.40
2022-12-15T02:29:45.483Z,46.95
2022-12-15T02:32:14.017Z,49.42
2022-12-15T02:34:42.694Z,48.90
2022-12-15T02:37:24.121Z,47.65
2022-12-15T02:39:50.730Z,49.05
2022-12-15T02:42:17.362Z,46.10
2022-12-15T02:45:01.652Z,46.30
2022-12-15T02:47:52.497Z,43.95
2022-12-15T02:50:51.622Z,49.00
2022-12-15T02:53:37.024Z,49.28
2022-12-15T02:56:25.667Z,50.78
2022-12-15T02:59:21.246Z,52.13
2022-12-15T03:01:59.486Z,51.22
2022-12-15T03:04:27.629Z,55.33
2022-12-15T03:07:01.202Z,55.22
2022-12-15T03:09:28.191Z,55.08
2022-12-15T03:11:54.742Z,58.75
2022-12-15T03:14:21.419Z,52.42
2022-12-15T03:16:48.105Z,57.58
2022-12-15T03:19:14.815Z,56.30
2022-12-15T03:21:41.448Z,52.50
2022-12-15T03:24:08.146Z,57.03
2022-12-15T03:26:34.824Z,61.15
2022-12-15T03:29:01.456Z,60.80
2022-12-15T03:31:28.147Z,59.70
2022-12-15T03:33:55.428Z,60.00
2022-12-15T03:36:25.302Z,61.72
2022-12-15T03:38:51.890Z,64.70
2022-12-15T03:41:19.238Z,62.20
2022-12-15T03:43:46.340Z,63.38
2022-12-15T03:46:16.667Z,60.25
2022-12-15T03:48:43.377Z,66.05
2022-12-15T03:51:10.101Z,62.30
2022-12-15T03:53:36.770Z,64.43
2022-12-15T03:56:03.546Z,67.45
2022-12-15T03:58:30.286Z,60.10
2022-12-15T04:00:57.087Z,61.83
2022-12-15T04:03:23.841Z,62.13
2022-12-15T04:05:51.512Z,61.28
2022-12-15T04:08:18.155Z,58.45
2022-12-15T04:10:44.755Z,61.20
2022-12-15T04:13:11.895Z,60.40
2022-12-15T04:15:39.790Z,56.47
2022-12-15T04:18:09.790Z,63.50
2022-12-15T04:20:37.194Z,62.80
2022-12-15T04:23:03.860Z,63.33
2022-12-15T04:25:49.303Z,60.58
2022-12-15T04:28:34.737Z,63.80
2022-12-15T04:31:29.778Z,66.03
2022-12-15T04:34:22.344Z,68.82
2022-12-15T04:37:10.062Z,66.05
2022-12-15T04:39:56.998Z,66.47
2022-12-15T04:42:42.989Z,61.08
2022-12-15T04:45:30.353Z,59.72
2022-12-15T04:48:15.771Z,62.10
2022-12-15T04:51:00.986Z,61.63
2022-12-15T04:53:46.392Z,65.65
2022-12-15T04:56:33.875Z,63.65
2022-12-15T04:59:19.666Z,64.07
2022-12-15T05:02:05.440Z,66.15
2022-12-15T05:04:50.705Z,62.65
2022-12-15T05:07:35.975Z,68.32
2022-12-15T05:10:21.966Z,63.42
2022-12-15T05:13:07.376Z,66.32
2022-12-15T05:15:53.570Z,65.70
2022-12-15T05:18:39.889Z,69.85
2022-12-15T05:21:25.728Z,64.88
2022-12-15T05:24:11.668Z,69.57
2022-12-15T05:26:57.696Z,64.05
2022-12-15T05:29:43.654Z,64.70
2022-12-15T05:32:13.080Z,67.82
2022-12-15T05:34:40.083Z,67.13
2022-12-15T05:37:07.349Z,62.35
2022-12-15T05:39:34.435Z,67.22
2022-12-15T05:42:01.489Z,66.50
2022-12-15T05:44:28.873Z,64.20
2022-12-15T05:46:55.566Z,69.90
2022-12-15T05:49:23.250Z,65.65
2022-12-15T05:51:49.793Z,62.13
2022-12-15T05:54:18.847Z,71.57
2022-12-15T05:56:46.108Z,68.07
2022-12-15T05:59:13.157Z,66.25
2022-12-15T06:01:39.959Z,60.40
2022-12-15T06:04:07.371Z,65.13
2022-12-15T06:06:34.028Z,65.32
2022-12-15T06:09:00.603Z,62.67
2022-12-15T06:11:27.336Z,70.28
2022-12-15T06:13:55.448Z,64.05
2022-12-15T06:16:23.670Z,65.72
2022-12-15T06:18:56.026Z,64.43
2022-12-15T06:21:26.565Z,65.15
2022-12-15T06:23:54.793Z,67.40
2022-12-15T06:26:27.679Z,67.93
2022-12-15T06:28:57.374Z,61.67
2022-12-15T06:31:26.045Z,61.85
2022-12-15T06:34:00.905Z,60.75
2022-12-15T06:36:28.497Z,60.47
2022-12-15T06:38:55.581Z,60.17
2022-12-15T06:41:22.834Z,65.43
2022-12-15T06:43:50.824Z,62.00
2022-12-15T06:46:17.995Z,60.70
2022-12-15T06:48:45.756Z,60.40
2022-12-15T06:51:17.004Z,63.38
2022-12-15T06:53:48.942Z,57.67
2022-12-15T06:56:28.650Z,56.63
2022-12-15T06:58:59.497Z,45.13
2022-12-15T07:01:27.141Z,59.15
2022-12-15T07:03:55.303Z,56.25
2022-12-15T07:06:22.605Z,60.80
2022-12-15T07:08:54.184Z,61.03
2022-12-15T07:11:22.221Z,59.95
2022-12-15T07:13:53.152Z,67.32
2022-12-15T07:16:21.374Z,63.78
2022-12-15T07:18:48.457Z,62.15
2022-12-15T07:21:15.505Z,68.43
2022-12-15T07:23:58.581Z,64.00
2022-12-15T07:26:26.244Z,67.15
2022-12-15T07:28:54.035Z,62.08
2022-12-15T07:31:21.473Z,65.70
2022-12-15T07:33:48.789Z,66.78
2022-12-15T07:36:15.923Z,66.50
2022-12-15T07:38:45.370Z,62.65
2022-12-15T07:41:17.528Z,65.47
2022-12-15T07:43:45.375Z,63.53
2022-12-15T07:46:12.456Z,64.90
2022-12-15T07:48:39.499Z,60.72
2022-12-15T07:51:12.359Z,64.78
2022-12-15T07:53:42.488Z,59.85
2022-12-15T07:56:10.395Z,63.55
2022-12-15T07:58:38.324Z,62.95
2022-12-15T08:01:07.796Z,65.50
2022-12-15T08:03:35.913Z,60.70
2022-12-15T08:06:07.903Z,69.78
2022-12-15T08:08:35.850Z,74.25
2022-12-15T08:11:07.825Z,68.28
2022-12-15T08:16:22.148Z,63.70
2022-12-15T08:18:48.949Z,59.28
2022-12-15T08:21:16.140Z,61.60
2022-12-15T08:23:43.223Z,65.30
2022-12-15T08:26:14.493Z,67.13
2022-12-15T08:28:41.924Z,64.50
2022-12-15T08:31:13.424Z,62.58
2022-12-15T08:33:40.881Z,59.85
2022-12-15T08:36:09.072Z,62.92
2022-12-15T08:38:36.667Z,59.42
2022-12-15T08:41:07.435Z,61.83
2022-12-15T08:43:34.839Z,55.95
2022-12-15T08:46:02.160Z,60.83
2022-12-15T08:48:29.252Z,58.97
2022-12-15T08:50:56.793Z,62.47
2022-12-15T08:53:32.043Z,59.92
2022-12-15T08:56:09.906Z,57.45
2022-12-15T08:58:36.523Z,54.55
2022-12-15T09:01:06.380Z,63.83
2022-12-15T09:03:34.885Z,57.90
2022-12-15T09:06:03.773Z,57.83
2022-12-15T09:08:31.107Z,57.97
2022-12-15T09:10:58.986Z,58.28
2022-12-15T09:13:26.150Z,56.45
2022-12-15T09:16:15.519Z,54.70
2022-12-15T09:18:43.736Z,52.80
2022-12-15T09:21:11.428Z,59.78
2022-12-15T09:23:39.101Z,60.17
2022-12-15T09:26:09.582Z,58.05
2022-12-15T09:28:37.821Z,57.47
2022-12-15T09:31:09.542Z,58.38
2022-12-15T09:33:37.570Z,59.72
2022-12-15T09:36:05.207Z,57.72
2022-12-15T09:38:33.971Z,57.72
2022-12-15T09:41:08.454Z,57.08
2022-12-15T09:43:47.041Z,62.15
2022-12-15T09:46:39.117Z,61.42
2022-12-15T09:49:11.915Z,71.63
2022-12-15T09:51:48.764Z,58.13
2022-12-15T09:54:15.864Z,61.53
2022-12-15T09:56:50.669Z,60.80
2022-12-15T09:59:33.345Z,61.97
2022-12-15T10:02:18.652Z,58.08
2022-12-15T10:04:56.391Z,63.55
2022-12-15T10:07:41.933Z,56.53
2022-12-15T10:10:16.706Z,59.38
2022-12-15T10:12:57.624Z,58.47
2022-12-15T10:15:35.470Z,56.65
2022-12-15T10:18:20.691Z,66.88
2022-12-15T10:20:48.574Z,58.90
2022-12-15T10:23:17.986Z,57.75
2022-12-15T10:25:47.972Z,59.03
2022-12-15T10:28:37.662Z,58.92
2022-12-15T10:31:15.736Z,60.45
2022-12-15T10:33:48.738Z,64.40
2022-12-15T10:36:17.466Z,54.80
2022-12-15T10:38:50.518Z,62.00
2022-12-15T10:41:27.524Z,55.95
2022-12-15T10:43:54.805Z,61.00
2022-12-15T10:46:26.480Z,65.75
2022-12-15T10:49:21.302Z,63.25
2022-12-15T10:52:00.161Z,59.03
2022-12-15T10:54:34.017Z,59.85
2022-12-15T10:57:15.765Z,55.58
2022-12-15T10:59:42.442Z,59.65
2022-12-15T11:02:24.273Z,63.08
2022-12-15T11:05:00.591Z,63.58
2022-12-15T11:07:41.289Z,64.53
2022-12-15T11:10:15.646Z,62.08
2022-12-15T11:12:51.815Z,67.85
2022-12-15T11:15:24.295Z,60.78
2022-12-15T11:18:04.428Z,65.00
2022-12-15T11:20:37.139Z,67.60
2022-12-15T11:23:13.619Z,67.78
2022-12-15T11:25:45.046Z,68.15
2022-12-15T11:28:22.091Z,66.90
2022-12-15T11:31:02.895Z,68.63
2022-12-15T11:33:29.829Z,68.03
2022-12-15T11:36:23.624Z,73.05
2022-12-15T11:38:52.395Z,49.90
2022-12-15T11:41:43.650Z,69.40
2022-12-15T11:44:27.228Z,68.57
2022-12-15T11:47:13.192Z,68.57
2022-12-15T11:50:23.185Z,70.88
2022-12-15T11:53:11.686Z,69.47
2022-12-15T11:56:09.726Z,70.47
2022-12-15T11:58:50.315Z,72.25
2022-12-15T12:01:51.635Z,72.15
2022-12-15T12:04:39.161Z,76.28
2022-12-15T12:07:38.453Z,73.82
2022-12-15T12:10:31.539Z,72.78
2022-12-15T12:13:09.984Z,70.93
2022-12-15T12:15:53.472Z,70.22
2022-12-15T12:21:00.096Z,67.00
2022-12-15T12:23:48.033Z,69.57
2022-12-15T12:26:54.776Z,72.72
2022-12-15T12:29:43.714Z,71.70
2022-12-15T12:32:40.346Z,74.75
2022-12-15T12:38:11.652Z,75.50
2022-12-15T12:40:41.120Z,74.38
2022-12-15T12:43:30.860Z,76.70
2022-12-15T12:46:03.521Z,75.57
2022-12-15T12:48:33.619Z,76.47
2022-12-15T12:51:11.659Z,76.57
2022-12-15T12:53:38.678Z,67.85
2022-12-15T12:56:05.643Z,77.15
2022-12-15T12:58:34.187Z,71.47
2022-12-15T13:01:16.289Z,78.47
2022-12-15T13:03:43.620Z,79.15
2022-12-15T13:06:42.906Z,68.57
2022-12-15T13:09:22.041Z,66.82
2022-12-15T13:11:49.361Z,69.50
2022-12-15T13:14:26.083Z,69.43
2022-12-15T13:17:24.807Z,68.45
2022-12-15T13:19:59.736Z,71.50
2022-12-15T13:22:37.247Z,71.13
2022-12-15T13:25:24.272Z,71.38
2022-12-15T13:27:52.528Z,70.38
2022-12-15T13:30:19.726Z,74.20
2022-12-15T13:32:48.304Z,73.95
2022-12-15T13:35:22.459Z,73.15
2022-12-15T13:37:52.303Z,68.60
2022-12-15T13:40:33.128Z,67.80
2022-12-15T13:43:11.320Z,71.72
2022-12-15T13:45:39.549Z,71.10
2022-12-15T13:48:27.084Z,68.72
2022-12-15T13:50:57.283Z,68.25
2022-12-15T13:53:26.132Z,68.53
2022-12-15T13:55:55.001Z,65.30
2022-12-15T13:58:23.768Z,79.82
2022-12-15T14:00:55.332Z,75.85
2022-12-15T14:03:22.629Z,74.47
2022-12-15T14:05:51.253Z,71.55
2022-12-15T14:08:18.667Z,81.40
2022-12-15T14:10:45.814Z,78.63
2022-12-15T14:13:21.316Z,81.45
2022-12-15T14:15:52.524Z,80.93
2022-12-15T14:18:33.181Z,79.72
2022-12-15T14:21:00.950Z,88.70
2022-12-15T14:23:40.305Z,85.68
2022-12-15T14:26:08.760Z,84.93
2022-12-15T14:28:37.273Z,85.32
2022-12-15T14:31:05.946Z,83.82
2022-12-15T14:33:36.187Z,87.80
2022-12-15T14:36:06.127Z,83.55
2022-12-15T14:38:42.763Z,88.13
2022-12-15T14:41:14.583Z,88.53
2022-12-15T14:43:41.734Z,88.03
2022-12-15T14:46:19.749Z,84.10
2022-12-15T14:49:02.965Z,80.72
2022-12-15T14:51:32.649Z,86.45
2022-12-15T14:53:59.671Z,78.47
2022-12-15T14:56:31.182Z,80.15
2022-12-15T14:59:03.621Z,82.60
2022-12-15T15:01:33.501Z,76.95
2022-12-15T15:03:12.825Z,68.03
2022-12-15T15:04:02.073Z,82.57
2022-12-15T15:06:30.899Z,89.55
2022-12-15T15:09:10.478Z,83.55
2022-12-15T15:11:39.404Z,84.65
2022-12-15T15:14:09.000Z,83.85
2022-12-15T15:16:36.076Z,85.00
2022-12-15T15:19:04.441Z,88.20
2022-12-15T15:21:34.685Z,86.85
2022-12-15T15:24:20.835Z,82.38
2022-12-15T15:26:47.862Z,88.40
2022-12-15T15:29:34.195Z,81.93
2022-12-15T15:32:05.861Z,81.43
2022-12-15T15:34:32.870Z,78.45
2022-12-15T15:37:02.529Z,76.10
2022-12-15T15:39:29.549Z,83.40
2022-12-15T15:41:56.626Z,77.90
2022-12-15T15:44:23.646Z,78.15
2022-12-15T15:46:51.932Z,80.75
2022-12-15T15:49:20.614Z,81.22
2022-12-15T15:51:47.848Z,89.45
2022-12-15T15:54:16.646Z,77.35
2022-12-15T15:56:43.886Z,91.28
2022-12-15T15:59:15.234Z,82.35
2022-12-15T16:01:43.106Z,85.63
2022-12-15T16:04:10.426Z,79.88
2022-12-15T16:06:39.762Z,79.75
2022-12-15T16:09:12.741Z,80.30
2022-12-15T16:11:39.772Z,90.72
2022-12-15T16:14:11.460Z,85.80
2022-12-15T16:16:38.517Z,85.45
2022-12-15T16:19:05.543Z,83.57
2022-12-15T16:21:32.911Z,94.88
2022-12-15T16:24:00.228Z,81.68
2022-12-15T16:26:32.067Z,90.57
2022-12-15T16:28:59.170Z,97.55
2022-12-15T16:31:41.022Z,90.93
2022-12-15T16:34:08.894Z,96.93
2022-12-15T16:36:35.935Z,100.18
2022-12-15T16:39:04.336Z,94.90
2022-12-15T16:41:31.622Z,102.78
2022-12-15T16:43:59.209Z,102.57
2022-12-15T16:46:26.274Z,103.65
2022-12-15T16:48:53.524Z,100.05
2022-12-15T16:51:34.886Z,105.90
2022-12-15T16:54:01.954Z,106.03
2022-12-15T16:56:29.003Z,104.15
2022-12-15T16:59:15.540Z,106.15
2022-12-15T17:01:44.640Z,98.85
2022-12-15T17:04:12.067Z,99.72
2022-12-15T17:06:39.162Z,104.28
2022-12-15T17:09:08.753Z,104.25
2022-12-15T17:11:35.980Z,105.03
2022-12-15T17:14:03.024Z,93.13
2022-12-15T17:16:30.189Z,93.90
2022-12-15T17:18:57.449Z,99.68
2022-12-15T17:21:26.973Z,91.03
2022-12-15T17:23:55.666Z,93.35
2022-12-15T17:26:29.178Z,95.28
2022-12-15T17:28:59.061Z,94.88
2022-12-15T17:31:30.188Z,93.05
2022-12-15T17:34:02.559Z,94.50
2022-12-15T17:36:29.983Z,86.57
2022-12-15T17:39:01.362Z,95.32
2022-12-15T17:41:58.182Z,96.18
2022-12-15T17:44:33.097Z,103.70
2022-12-15T17:47:01.129Z,103.28
2022-12-15T17:49:34.651Z,103.57
2022-12-15T17:52:03.759Z,104.72
2022-12-15T17:54:30.862Z,99.47
2022-12-15T17:56:58.445Z,107.07
2022-12-15T17:59:25.479Z,112.72
2022-12-15T18:01:52.727Z,113.63
2022-12-15T18:04:19.951Z,115.07
2022-12-15T18:06:47.061Z,111.18
2022-12-15T18:09:17.832Z,117.53
2022-12-15T18:11:46.826Z,128.57
2022-12-15T18:14:14.959Z,122.72
2022-12-15T18:16:42.290Z,121.72
2022-12-15T18:19:09.433Z,131.88
2022-12-15T18:21:36.642Z,122.60
2022-12-15T18:24:03.970Z,124.65
2022-12-15T18:26:37.652Z,119.22
2022-12-15T18:31:31.809Z,116.20
2022-12-15T18:34:04.331Z,131.88
2022-12-15T18:36:31.967Z,136.40
2022-12-15T18:38:59.044Z,133.02
2022-12-15T18:41:26.175Z,140.98
2022-12-15T18:43:56.235Z,124.10
2022-12-15T18:46:23.277Z,135.88
2022-12-15T18:48:50.414Z,133.00
2022-12-15T18:51:22.202Z,150.23
2022-12-15T18:53:49.371Z,146.02
2022-12-15T18:56:18.074Z,141.85
2022-12-15T18:58:45.442Z,144.55
2022-12-15T19:01:12.635Z,147.70
2022-12-15T19:03:41.019Z,132.93
2022-12-15T19:06:22.566Z,139.77
2022-12-15T19:08:52.486Z,154.55
2022-12-15T19:11:22.442Z,148.57
2022-12-15T19:13:49.710Z,150.05
2022-12-15T19:16:18.140Z,163.38
2022-12-15T19:19:04.155Z,147.75
2022-12-15T19:21:51.132Z,167.02
2022-12-15T19:24:47.080Z,166.90
2022-12-15T19:27:20.087Z,156.73
2022-12-15T19:29:47.799Z,117.10
2022-12-15T19:32:14.849Z,168.60
2022-12-15T19:34:41.846Z,162.40
2022-12-15T19:37:12.846Z,155.35
2022-12-15T19:39:39.890Z,155.40
2022-12-15T19:42:16.157Z,138.43
2022-12-15T19:44:43.167Z,162.50
2022-12-15T19:47:14.028Z,163.90
2022-12-15T19:49:44.227Z,140.38
2022-12-15T19:52:18.068Z,154.43
2022-12-15T19:54:46.570Z,146.98
2022-12-15T19:57:14.422Z,141.15
2022-12-15T19:59:41.699Z,156.18
2022-12-15T20:02:16.048Z,140.10
2022-12-15T20:04:43.167Z,149.73
2022-12-15T20:07:16.496Z,140.85
2022-12-15T20:09:43.520Z,145.68
2022-12-15T20:12:17.847Z,168.63
2022-12-15T20:14:45.280Z,134.88
2022-12-15T20:17:12.368Z,141.48
2022-12-15T20:19:39.486Z,138.15
2022-12-15T20:22:06.816Z,141.15
2022-12-15T20:24:34.937Z,135.68
2022-12-15T20:27:04.888Z,143.13
2022-12-15T20:29:34.495Z,130.13
2022-12-15T20:32:01.597Z,141.18
2022-12-15T20:34:28.660Z,122.55
2022-12-15T20:36:55.695Z,120.28
2022-12-15T20:39:29.120Z,112.88
2022-12-15T20:41:56.805Z,123.60
2022-12-15T20:44:24.317Z,121.40
2022-12-15T20:46:51.196Z,121.60
2022-12-15T20:49:20.800Z,131.13
2022-12-15T20:51:48.723Z,119.38
2022-12-15T20:54:20.922Z,109.57
2022-12-15T20:56:48.603Z,111.97
2022-12-15T20:59:16.736Z,112.60
2022-12-15T21:01:44.538Z,111.40
2022-12-15T21:04:27.077Z,99.32
2022-12-15T21:06:55.260Z,110.32
2022-12-15T21:09:22.633Z,102.28
2022-12-15T21:11:51.708Z,95.40
2022-12-15T21:14:20.688Z,98.30
2022-12-15T21:16:47.812Z,96.05
2022-12-15T21:19:23.170Z,90.80
2022-12-15T21:21:52.950Z,94.13
2022-12-15T21:24:24.101Z,90.80
2022-12-15T21:26:51.337Z,86.70
2022-12-15T21:29:20.273Z,90.75
2022-12-15T21:31:47.484Z,85.20
2022-12-15T21:34:15.266Z,92.53
2022-12-15T21:36:43.348Z,83.65
2022-12-15T21:39:21.540Z,87.93
2022-12-15T21:41:48.623Z,77.72
2022-12-15T21:44:16.131Z,81.38
2022-12-15T21:46:43.236Z,75.60
2022-12-15T21:49:14.603Z,57.25
2022-12-15T21:51:43.868Z,59.33
2022-12-15T21:54:19.003Z,57.17
2022-12-15T21:56:47.587Z,54.17
2022-12-15T21:59:15.538Z,56.83
2022-12-15T22:01:42.977Z,57.28
2022-12-15T22:04:16.320Z,63.08
2022-12-15T22:06:48.682Z,55.78
2022-12-15T22:09:18.446Z,56.00
2022-12-15T22:11:47.296Z,52.30
2022-12-15T22:14:16.658Z,59.83
2022-12-15T22:16:43.637Z,50.35
2022-12-15T22:19:13.445Z,55.00
2022-12-15T22:21:42.213Z,53.88
2022-12-15T22:24:09.910Z,58.47
2022-12-15T22:26:37.678Z,50.97
2022-12-15T22:29:11.144Z,53.45
2022-12-15T22:31:38.164Z,56.15
2022-12-15T22:34:18.527Z,49.33
2022-12-15T22:36:45.659Z,52.25
2022-12-15T22:39:14.694Z,49.90
2022-12-15T22:41:46.226Z,52.42
2022-12-15T22:44:21.831Z,49.10
2022-12-15T22:46:49.812Z,47.80
2022-12-15T22:49:21.773Z,58.53
2022-12-15T22:51:48.809Z,53.38
2022-12-15T22:54:18.993Z,49.88
2022-12-15T22:56:46.647Z,50.08
2022-12-15T22:59:18.072Z,52.13
2022-12-15T23:01:45.171Z,49.03
2022-12-15T23:04:12.483Z,53.33
2022-12-15T23:06:40.419Z,49.63
2022-12-15T23:09:07.137Z,49.40
2022-12-15T23:11:41.311Z,47.42
2022-12-15T23:14:18.020Z,50.45
2022-12-15T23:16:46.274Z,53.53
2022-12-15T23:19:25.155Z,49.00
2022-12-15T23:21:52.133Z,52.67
2022-12-15T23:24:18.928Z,51.22
2022-12-15T23:26:45.971Z,48.53
2022-12-15T23:29:13.012Z,46.63
2022-12-15T23:31:40.181Z,50.30
2022-12-15T23:34:07.284Z,49.33
2022-12-15T23:36:34.288Z,45.85
2022-12-15T23:39:01.400Z,49.42
2022-12-15T23:41:29.336Z,49.05
2022-12-15T23:43:56.458Z,52.17
2022-12-15T23:46:23.150Z,51.55
2022-12-15T23:48:50.183Z,49.53
2022-12-15T23:51:19.799Z,49.42
2022-12-15T23:53:47.512Z,50.85
2022-12-15T23:56:15.833Z,48.55
2022-12-15T23:58:43.849Z,50.47
